Varmdo — SMXZ — position and weather

sailwx.info

Track history (hours):
 
Tides and Currents Weather Stations Pressure Air Temp Water Temp Dewpoint Dewpoint Depression Visibility Wind Speed Wind Dir Waves Ship Positions

Varmdo

Last reported at 2018-May-25 05:30 UTC. Time now 2018-May-25 05:31 UTC.
Position N 59°23' E 018°45'.

Length 38 m; draft 2.5 m.

Type: Passenger vessel. MMSI: 265520390.

Date/timePositionNaut miles runAvg speedWind from/ knotsBaromVisibWave heightAir tempDewpointWater temp
2018-May-25 05:30N 59°23' E 018°45'3 5.5
2018-May-25 05:00N 59°23' E 018°50'3 6.7
2018-May-25 04:30N 59°25' E 018°55'1 0.1
2018-May-24 17:34N 59°27' E 018°55'0 0.1
2018-May-24 17:13N 59°27' E 018°55'1 3.1
2018-May-24 17:01N 59°26' E 018°56'4 8.2
2018-May-24 16:30N 59°23' E 018°51'3 5.7
2018-May-24 16:00N 59°23' E 018°45'2 5.0
2018-May-24 15:31N 59°23' E 018°40'2 1.5
2018-May-24 14:07N 59°22' E 018°36'0 0.9
2018-May-24 14:00N 59°22' E 018°36'4 7.2
2018-May-24 13:30N 59°24' E 018°43'1 0.3
2018-May-24 08:57N 59°23' E 018°42'2 4.8
2018-May-24 08:30N 59°23' E 018°38'1 0.6
2018-May-24 07:04N 59°22' E 018°36'0 0.1
2018-May-24 06:49N 59°22' E 018°36'0 1.0
2018-May-24 06:31N 59°22' E 018°36'0 0.1
2018-May-24 06:00N 59°22' E 018°36'4 7.0
2018-May-24 05:27N 59°26' E 018°39'2 3.5
2018-May-24 05:00N 59°26' E 018°42'5 9.4
2018-May-24 04:30N 59°29' E 018°50'1 2.0
2018-May-24 03:49N 59°30' E 018°51'0 0.0
2018-May-24 00:55N 59°30' E 018°51'0 0.0
2018-May-24 00:25N 59°30' E 018°51'0 0.0
2018-May-23 16:49N 59°30' E 018°51'4 8.2
2018-May-23 16:18N 59°27' E 018°44'2 6.8
2018-May-23 16:00N 59°26' E 018°41'4 7.3
2018-May-23 15:30N 59°23' E 018°37'3 5.7
2018-May-23 15:00N 59°25' E 018°32'4 8.3
2018-May-23 14:30N 59°26' E 018°24'3 5.5
2018-May-23 13:59N 59°23' E 018°20'4 8.1
2018-May-23 13:30N 59°21' E 018°15'510.5
2018-May-23 13:00N 59°20' E 018°04'0 0.1
2018-May-23 12:30N 59°20' E 018°04'0 0.0
2018-May-23 12:00N 59°20' E 018°04'0 0.0
2018-May-23 11:30N 59°20' E 018°04'0 0.0
2018-May-23 11:00N 59°20' E 018°04'0 0.0
2018-May-23 10:30N 59°20' E 018°04'0 0.0
2018-May-23 10:00N 59°20' E 018°04'0 0.0
2018-May-23 09:30N 59°20' E 018°04'0 0.0
2018-May-23 09:00N 59°20' E 018°04'0 0.0
2018-May-23 08:30N 59°20' E 018°04'0 0.0
2018-May-23 08:00N 59°20' E 018°04'0 0.0
2018-May-23 07:30N 59°20' E 018°04'0 0.0
2018-May-23 07:00N 59°20' E 018°04'0 0.0
2018-May-23 06:30N 59°20' E 018°04'0 0.0
2018-May-23 06:00N 59°20' E 018°04'4 7.4
2018-May-23 05:30N 59°20' E 018°12'5 9.2
2018-May-23 05:00N 59°23' E 018°19'2 4.4
2018-May-23 04:30N 59°24' E 018°23'0 0.3
2018-May-23 04:00N 59°24' E 018°23'1 0.6
2018-May-23 02:33N 59°24' E 018°21'0 0.0
2018-May-23 02:21N 59°24' E 018°21'0 0.0
2018-May-23 01:51N 59°24' E 018°21'0 0.0
2018-May-23 01:09N 59°24' E 018°21'0 0.0
2018-May-23 00:57N 59°24' E 018°21'0 0.0
2018-May-23 00:27N 59°24' E 018°21'0 0.0
2018-May-22 23:57N 59°24' E 018°21'0 0.0
2018-May-22 23:27N 59°24' E 018°21'0 0.0
2018-May-22 22:45N 59°24' E 018°21'0 0.0
2018-May-22 17:32N 59°24' E 018°21'0 6.4
2018-May-22 17:30N 59°24' E 018°22'1 1.1
2018-May-22 16:59N 59°24' E 018°23'2 3.2
2018-May-22 16:30N 59°23' E 018°20'4 8.7
2018-May-22 16:00N 59°20' E 018°13'4 8.8
2018-May-22 15:30N 59°20' E 018°05'0 0.1
2018-May-22 14:55N 59°20' E 018°05'0 0.0
2018-May-22 14:25N 59°20' E 018°05'0 0.8
2018-May-22 14:00N 59°19' E 018°05'510.0
2018-May-22 13:30N 59°21' E 018°14'5 9.9
2018-May-22 13:00N 59°24' E 018°21'4 6.9
2018-May-22 12:30N 59°26' E 018°27'4 7.3
2018-May-22 12:00N 59°25' E 018°33'4 7.2
2018-May-22 11:30N 59°28' E 018°38'4 7.5
2018-May-22 10:59N 59°29' E 018°45'3 5.9
2018-May-22 10:30N 59°30' E 018°51'611.1
2018-May-22 10:00N 59°28' E 018°41'3 6.2
2018-May-22 09:29N 59°26' E 018°35'3 5.7
2018-May-22 08:58N 59°25' E 018°30'3 6.6
2018-May-22 08:30N 59°26' E 018°24'4 7.4
2018-May-22 08:00N 59°22' E 018°20'3 6.8
2018-May-22 07:30N 59°21' E 018°14'510.2
2018-May-22 07:00N 59°20' E 018°04'0 0.1
2018-May-22 06:26N 59°20' E 018°05'0 0.0
2018-May-22 05:56N 59°20' E 018°05'0 0.0
2018-May-22 05:26N 59°20' E 018°05'0 0.0
2018-May-22 04:56N 59°20' E 018°05'0 0.0
2018-May-22 04:26N 59°20' E 018°05'0 0.0
2018-May-22 03:56N 59°20' E 018°05'0 0.0
2018-May-22 03:26N 59°20' E 018°05'0 0.0
2018-May-22 02:56N 59°20' E 018°05'0 0.0
2018-May-22 02:26N 59°20' E 018°05'0 0.0
2018-May-22 01:56N 59°20' E 018°05'0 0.0
2018-May-22 01:26N 59°20' E 018°05'0 0.0
2018-May-22 00:56N 59°20' E 018°05'0 0.0
2018-May-22 00:26N 59°20' E 018°05'0 0.0
2018-May-21 23:56N 59°20' E 018°05'0 0.0
2018-May-21 23:26N 59°20' E 018°05'0 0.0
2018-May-21 22:56N 59°20' E 018°05'0 0.0
2018-May-21 22:26N 59°20' E 018°05'0 0.0
2018-May-21 21:56N 59°20' E 018°05'0 0.0
2018-May-21 21:20N 59°20' E 018°05'0 0.0
2018-May-21 20:56N 59°20' E 018°05'0 0.0
2018-May-21 20:26N 59°20' E 018°05'0 0.0
2018-May-21 19:56N 59°20' E 018°05'0 0.0
2018-May-21 19:26N 59°20' E 018°05'0 0.0
2018-May-21 18:56N 59°20' E 018°05'0 0.0
2018-May-21 18:26N 59°20' E 018°05'0 0.0
2018-May-21 17:56N 59°20' E 018°05'0 0.0
2018-May-21 17:26N 59°20' E 018°05'0 0.0
2018-May-21 16:56N 59°20' E 018°05'0 0.0
2018-May-21 16:26N 59°20' E 018°05'0 0.0
2018-May-21 15:56N 59°20' E 018°05'0 0.0
2018-May-21 15:26N 59°20' E 018°05'0 0.0
2018-May-21 14:50N 59°20' E 018°05'0 0.0
2018-May-21 14:26N 59°20' E 018°05'0 0.0
2018-May-21 13:56N 59°20' E 018°05'0 0.0
2018-May-21 13:26N 59°20' E 018°05'0 0.0
2018-May-21 12:56N 59°20' E 018°05'0 0.0
2018-May-21 12:26N 59°20' E 018°05'0 0.0
2018-May-21 11:56N 59°20' E 018°05'0 0.0
2018-May-21 11:26N 59°20' E 018°05'0 0.0
2018-May-21 10:56N 59°20' E 018°05'0 0.0
2018-May-21 10:26N 59°20' E 018°05'0 0.0
2018-May-21 09:56N 59°20' E 018°05'0 0.0
2018-May-21 09:26N 59°20' E 018°05'0 0.0
2018-May-21 08:56N 59°20' E 018°05'0 0.0
2018-May-21 08:26N 59°20' E 018°05'0 0.0
2018-May-21 07:56N 59°20' E 018°05'0 0.0
2018-May-21 07:26N 59°20' E 018°05'0 0.0
2018-May-21 06:56N 59°20' E 018°05'0 0.0
2018-May-21 06:26N 59°20' E 018°05'0 0.0
2018-May-21 05:56N 59°20' E 018°05'0 0.0
2018-May-21 05:26N 59°20' E 018°05'0 0.0
2018-May-21 04:56N 59°20' E 018°05'0 0.0
2018-May-21 04:26N 59°20' E 018°05'0 0.0
2018-May-21 03:56N 59°20' E 018°05'0 0.0
2018-May-21 03:26N 59°20' E 018°05'0 0.0
2018-May-21 02:56N 59°20' E 018°05'0 0.0
2018-May-21 02:26N 59°20' E 018°05'0 0.0
2018-May-21 01:56N 59°20' E 018°05'0 0.0
2018-May-21 01:26N 59°20' E 018°05'0 0.0
2018-May-21 00:56N 59°20' E 018°05'0 0.0
2018-May-21 00:26N 59°20' E 018°05'0 0.0
2018-May-20 23:56N 59°20' E 018°05'0 0.0
2018-May-20 23:26N 59°20' E 018°05'0 0.0
2018-May-20 22:56N 59°20' E 018°05'0 0.0
2018-May-20 22:26N 59°20' E 018°05'0 0.0
2018-May-20 21:56N 59°20' E 018°05'0 0.0
2018-May-20 21:20N 59°20' E 018°05'0 0.0
2018-May-20 20:56N 59°20' E 018°05'0 0.0
2018-May-20 20:30N 59°20' E 018°05'0 0.0
2018-May-20 20:00N 59°20' E 018°05'0 0.0
2018-May-20 19:30N 59°20' E 018°05'0 0.0
2018-May-20 18:55N 59°20' E 018°05'4 8.7
2018-May-20 18:30N 59°20' E 018°12'611.5
2018-May-20 18:00N 59°23' E 018°20'5 7.9
2018-May-20 17:23N 59°25' E 018°29'3 8.9
2018-May-20 17:00N 59°24' E 018°35'4 7.1
2018-May-20 16:29N 59°26' E 018°41'2 3.1
2018-May-20 15:46N 59°28' E 018°44'3 9.4
2018-May-20 15:26N 59°26' E 018°39'713.0
2018-May-20 14:56N 59°25' E 018°26'4 7.7
2018-May-20 14:28N 59°23' E 018°20'817.2
2018-May-20 14:00N 59°19' E 018°07'2 3.1
2018-May-20 13:30N 59°20' E 018°04'2 4.5
2018-May-20 13:00N 59°19' E 018°09'611.7
2018-May-20 12:30N 59°23' E 018°18'3 6.8
2018-May-20 12:00N 59°25' E 018°22'612.5
2018-May-20 11:30N 59°25' E 018°34'3 6.3
2018-May-20 11:01N 59°28' E 018°38'4 8.9
2018-May-20 10:30N 59°29' E 018°46'2 4.3
2018-May-20 09:57N 59°30' E 018°51'4 8.4
2018-May-20 09:29N 59°29' E 018°43'5 8.0
2018-May-20 08:54N 59°27' E 018°35'2 4.8
2018-May-20 08:30N 59°26' E 018°32'5 9.8
2018-May-20 07:59N 59°26' E 018°22'3 7.1
2018-May-20 07:30N 59°22' E 018°20'612.9
2018-May-20 07:00N 59°19' E 018°09'3 4.9
2018-May-20 06:29N 59°20' E 018°05'0 0.0
2018-May-20 05:59N 59°20' E 018°05'0 0.0
2018-May-20 05:29N 59°20' E 018°05'0 0.0
2018-May-20 04:59N 59°20' E 018°05'0 0.0
2018-May-20 04:29N 59°20' E 018°05'0 0.0
2018-May-20 03:59N 59°20' E 018°05'0 0.0
2018-May-20 03:23N 59°20' E 018°05'0 0.0
2018-May-20 02:59N 59°20' E 018°05'0 0.0
2018-May-20 02:29N 59°20' E 018°05'0 0.0
2018-May-20 01:59N 59°20' E 018°05'0 0.0
2018-May-20 01:29N 59°20' E 018°05'0 0.0
2018-May-20 00:59N 59°20' E 018°05'0 0.0
2018-May-20 00:29N 59°20' E 018°05'0 0.0
2018-May-19 23:59N 59°20' E 018°05'0 0.0
2018-May-19 23:29N 59°20' E 018°05'0 0.0
2018-May-19 22:59N 59°20' E 018°05'0 0.0
2018-May-19 22:29N 59°20' E 018°05'0 0.0
2018-May-19 21:59N 59°20' E 018°05'0 0.0
2018-May-19 21:29N 59°20' E 018°05'0 0.0
2018-May-19 20:59N 59°20' E 018°05'0 0.0
2018-May-19 20:29N 59°20' E 018°05'0 0.0
2018-May-19 19:59N 59°20' E 018°05'0 0.0
2018-May-19 19:29N 59°20' E 018°05'0 0.0
2018-May-19 18:59N 59°20' E 018°05'0 0.8
2018-May-19 18:31N 59°19' E 018°05'510.3
2018-May-19 18:00N 59°21' E 018°14'5 9.4
2018-May-19 17:27N 59°25' E 018°21'3 6.2
2018-May-19 17:00N 59°26' E 018°27'3 6.5
2018-May-19 16:30N 59°24' E 018°33'3 6.3
2018-May-19 16:00N 59°23' E 018°38'3 6.8
2018-May-19 15:30N 59°27' E 018°41'2 1.5
2018-May-19 14:12N 59°27' E 018°44'2 9.2
2018-May-19 14:00N 59°26' E 018°42'510.8
2018-May-19 13:30N 59°25' E 018°32'3 7.0
2018-May-19 13:00N 59°26' E 018°25'2 4.8
2018-May-19 12:30N 59°24' E 018°21'2 4.6
2018-May-19 12:00N 59°26' E 018°25'5 9.9
2018-May-19 11:30N 59°25' E 018°34'3 6.1
2018-May-19 11:00N 59°28' E 018°38'510.4
2018-May-19 10:31N 59°30' E 018°47'1 2.6
2018-May-19 10:00N 59°29' E 018°50'3 6.7
2018-May-19 09:29N 59°27' E 018°44'3 5.5
2018-May-19 08:53N 59°26' E 018°38'5 8.3
2018-May-19 08:21N 59°25' E 018°29'2 5.2
2018-May-19 08:00N 59°26' E 018°26'3 5.2
2018-May-19 07:26N 59°24' E 018°21'510.3
2018-May-19 07:00N 59°21' E 018°14'510.4
2018-May-19 06:30N 59°20' E 018°04'0 0.1
2018-May-19 05:57N 59°20' E 018°04'0 0.0
2018-May-19 05:27N 59°20' E 018°04'0 0.0
2018-May-19 04:57N 59°20' E 018°04'0 0.0
2018-May-19 04:22N 59°20' E 018°04'0 0.0
2018-May-19 03:57N 59°20' E 018°04'0 0.0
2018-May-19 03:27N 59°20' E 018°04'0 0.0
2018-May-19 02:57N 59°20' E 018°04'0 0.0
2018-May-19 02:28N 59°20' E 018°04'0 0.0
2018-May-19 01:57N 59°20' E 018°04'0 0.0
2018-May-19 01:27N 59°20' E 018°04'0 0.0
2018-May-19 00:58N 59°20' E 018°04'0 0.0
2018-May-19 00:27N 59°20' E 018°04'0 0.0
2018-May-18 23:57N 59°20' E 018°04'0 0.0
2018-May-18 23:27N 59°20' E 018°04'0 0.0
2018-May-18 22:57N 59°20' E 018°04'0 0.0
2018-May-18 22:27N 59°20' E 018°04'0 0.0
2018-May-18 21:58N 59°20' E 018°04'0 0.0
2018-May-18 21:27N 59°20' E 018°04'0 0.0
2018-May-18 20:57N 59°20' E 018°04'0 0.0
2018-May-18 20:27N 59°20' E 018°04'0 0.6
2018-May-18 20:00N 59°19' E 018°05'611.9
2018-May-18 19:30N 59°22' E 018°15'5 9.4
2018-May-18 19:00N 59°25' E 018°21'5 9.2
2018-May-18 18:30N 59°29' E 018°28'1 2.7
2018-May-18 18:00N 59°27' E 018°28'4 7.8
2018-May-18 17:30N 59°25' E 018°22'2 4.1
2018-May-18 16:59N 59°23' E 018°24'1 2.9
2018-May-18 16:30N 59°22' E 018°26'2 3.6
2018-May-18 15:59N 59°23' E 018°24'2 3.2
2018-May-18 15:27N 59°23' E 018°20'3 6.4
2018-May-18 15:00N 59°22' E 018°16'5 9.5
2018-May-18 14:30N 59°19' E 018°08'2 4.0
2018-May-18 14:00N 59°20' E 018°05'0 0.0
2018-May-18 13:30N 59°20' E 018°05'0 0.0
2018-May-18 13:00N 59°20' E 018°05'0 0.0
2018-May-18 12:30N 59°20' E 018°05'0 0.0
2018-May-18 12:00N 59°20' E 018°05'0 0.0
2018-May-18 11:30N 59°20' E 018°05'0 0.0
2018-May-18 11:00N 59°20' E 018°05'0 0.0
2018-May-18 10:30N 59°20' E 018°05'0 0.0
2018-May-18 10:00N 59°20' E 018°05'0 0.0
2018-May-18 09:30N 59°20' E 018°05'0 0.0
2018-May-18 09:00N 59°20' E 018°05'0 0.0
2018-May-18 08:30N 59°20' E 018°05'1 1.9
2018-May-18 08:00N 59°19' E 018°06'612.1
2018-May-18 07:30N 59°22' E 018°17'3 6.8
2018-May-18 07:00N 59°24' E 018°22'3 5.5
2018-May-18 06:30N 59°26' E 018°26'5 9.9
2018-May-18 06:00N 59°24' E 018°35'611.3
2018-May-18 05:30N 59°23' E 018°46'6 5.4
2018-May-18 04:23N 59°27' E 018°56'0 0.6
2018-May-18 04:00N 59°27' E 018°55'0 0.0
2018-May-18 03:12N 59°27' E 018°55'0 0.0
2018-May-18 02:42N 59°27' E 018°55'0 0.0
2018-May-18 00:00N 59°27' E 018°55'0 0.0
2018-May-17 23:24N 59°27' E 018°55'0 0.0
2018-May-17 23:00N 59°27' E 018°55'0 0.0
2018-May-17 22:30N 59°27' E 018°55'0 0.0
2018-May-17 19:18N 59°27' E 018°55'0 0.0
2018-May-17 18:54N 59°27' E 018°55'0 0.0
2018-May-17 18:24N 59°27' E 018°55'0 0.3
2018-May-17 18:00N 59°27' E 018°55'0 0.2
2018-May-17 17:30N 59°27' E 018°55'1 1.5
2018-May-17 17:00N 59°26' E 018°56'4 7.6
2018-May-17 16:27N 59°23' E 018°51'3 5.9
2018-May-17 15:58N 59°23' E 018°45'3 6.6
2018-May-17 15:30N 59°23' E 018°39'1 1.4
2018-May-17 14:29N 59°22' E 018°36'0 0.0
2018-May-17 13:58N 59°22' E 018°36'3 7.3
2018-May-17 13:30N 59°24' E 018°42'2 3.6
2018-May-17 13:00N 59°23' E 018°46'5 5.2
2018-May-17 12:00N 59°25' E 018°55'1 2.4
2018-May-17 11:26N 59°27' E 018°55'0 0.0
2018-May-17 10:56N 59°27' E 018°55'1 3.4
2018-May-17 10:30N 59°25' E 018°55'4 5.1
2018-May-17 09:46N 59°23' E 018°49'1 3.4
2018-May-17 09:21N 59°23' E 018°46'2 4.3
2018-May-17 08:52N 59°23' E 018°42'2 6.2
2018-May-17 08:30N 59°23' E 018°38'1 1.5
2018-May-17 07:55N 59°22' E 018°36'0 0.0
2018-May-17 07:07N 59°22' E 018°36'0 0.0
2018-May-17 06:55N 59°22' E 018°36'0 0.0
2018-May-17 06:25N 59°22' E 018°36'0 0.0
2018-May-17 05:54N 59°22' E 018°36'4 9.1
2018-May-17 05:28N 59°26' E 018°39'3 5.3
2018-May-17 04:53N 59°28' E 018°44'3 8.5
2018-May-17 04:30N 59°29' E 018°50'1 0.1
2018-May-16 16:50N 59°30' E 018°51'410.5
2018-May-16 16:27N 59°28' E 018°44'2 4.5
2018-May-16 16:00N 59°27' E 018°41'4 7.4
2018-May-16 15:30N 59°24' E 018°37'3 5.2
2018-May-16 15:00N 59°25' E 018°32'4 7.6
2018-May-16 14:30N 59°26' E 018°25'3 6.0
2018-May-16 14:00N 59°24' E 018°21'4 8.0
2018-May-16 13:30N 59°21' E 018°15'510.4
2018-May-16 13:00N 59°20' E 018°04'0 0.0
2018-May-16 12:30N 59°20' E 018°04'0 0.0
2018-May-16 12:00N 59°20' E 018°04'0 0.0
2018-May-16 11:30N 59°20' E 018°04'0 0.0
2018-May-16 11:00N 59°20' E 018°04'0 0.0
2018-May-16 10:30N 59°20' E 018°04'0 0.0
2018-May-16 10:00N 59°20' E 018°04'0 0.0
2018-May-16 09:30N 59°20' E 018°04'0 0.0
2018-May-16 09:00N 59°20' E 018°04'0 0.0
2018-May-16 08:30N 59°20' E 018°04'0 0.0
2018-May-16 08:00N 59°20' E 018°04'0 0.0
2018-May-16 07:30N 59°20' E 018°04'0 0.0
2018-May-16 07:00N 59°20' E 018°04'0 0.0
2018-May-16 06:30N 59°20' E 018°04'0 0.3
2018-May-16 06:00N 59°20' E 018°05'4 8.4
2018-May-16 05:30N 59°20' E 018°13'4 8.4
2018-May-16 05:01N 59°23' E 018°20'2 3.4
2018-May-16 04:30N 59°24' E 018°23'0 0.6
2018-May-16 04:00N 59°24' E 018°22'1 0.1
2018-May-15 17:50N 59°24' E 018°21'2 6.0
2018-May-15 17:30N 59°23' E 018°25'3 4.9
2018-May-15 16:59N 59°24' E 018°20'4 7.3
2018-May-15 16:25N 59°21' E 018°15'510.9
2018-May-15 16:00N 59°19' E 018°07'1 0.7
2018-May-15 14:09N 59°20' E 018°04'1 5.1
2018-May-15 13:59N 59°19' E 018°06'5 9.6
2018-May-15 13:26N 59°22' E 018°15'4 9.6
2018-May-15 13:00N 59°24' E 018°21'3 5.4
2018-May-15 12:30N 59°26' E 018°24'510.1
2018-May-15 12:00N 59°24' E 018°33'4 8.6
2018-May-15 11:31N 59°28' E 018°38'4 8.1
2018-May-15 11:00N 59°29' E 018°46'2 4.0
2018-May-15 10:30N 59°29' E 018°50'3 6.4
2018-May-15 10:00N 59°29' E 018°43'5 7.9
2018-May-15 09:23N 59°26' E 018°35'2 6.5
2018-May-15 09:00N 59°25' E 018°32'3 6.7
2018-May-15 08:29N 59°26' E 018°25'3 6.9
2018-May-15 08:00N 59°23' E 018°20'5 8.8
2018-May-15 07:29N 59°20' E 018°13'5 9.4
2018-May-15 07:00N 59°20' E 018°04'0 0.1
2018-May-15 06:29N 59°20' E 018°05'0 0.0
2018-May-15 05:59N 59°20' E 018°05'  
Track history (hours):
 
Tides and Currents Weather Stations Pressure Air Temp Water Temp Dewpoint Dewpoint Depression Visibility Wind Speed Wind Dir Waves Ship Positions

Varmdo

Last reported at 2018-May-25 05:30 UTC. Time now 2018-May-25 05:31 UTC.
Position N 59°23' E 018°45'.

Length 38 m; draft 2.5 m.

Type: Passenger vessel. MMSI: 265520390.

Date/timePositionNaut miles runAvg speedWind from/ knotsBaromVisibWave heightAir tempDewpointWater temp
2018-May-25 05:30N 59°23' E 018°45'3 5.5
2018-May-25 05:00N 59°23' E 018°50'3 6.7
2018-May-25 04:30N 59°25' E 018°55'1 0.1
2018-May-24 17:34N 59°27' E 018°55'0 0.1
2018-May-24 17:13N 59°27' E 018°55'1 3.1
2018-May-24 17:01N 59°26' E 018°56'4 8.2
2018-May-24 16:30N 59°23' E 018°51'3 5.7
2018-May-24 16:00N 59°23' E 018°45'2 5.0
2018-May-24 15:31N 59°23' E 018°40'2 1.5
2018-May-24 14:07N 59°22' E 018°36'0 0.9
2018-May-24 14:00N 59°22' E 018°36'4 7.2
2018-May-24 13:30N 59°24' E 018°43'1 0.3
2018-May-24 08:57N 59°23' E 018°42'2 4.8
2018-May-24 08:30N 59°23' E 018°38'1 0.6
2018-May-24 07:04N 59°22' E 018°36'0 0.1
2018-May-24 06:49N 59°22' E 018°36'0 1.0
2018-May-24 06:31N 59°22' E 018°36'0 0.1
2018-May-24 06:00N 59°22' E 018°36'4 7.0
2018-May-24 05:27N 59°26' E 018°39'2 3.5
2018-May-24 05:00N 59°26' E 018°42'5 9.4
2018-May-24 04:30N 59°29' E 018°50'1 2.0
2018-May-24 03:49N 59°30' E 018°51'0 0.0
2018-May-24 00:55N 59°30' E 018°51'0 0.0
2018-May-24 00:25N 59°30' E 018°51'0 0.0
2018-May-23 16:49N 59°30' E 018°51'4 8.2
2018-May-23 16:18N 59°27' E 018°44'2 6.8
2018-May-23 16:00N 59°26' E 018°41'4 7.3
2018-May-23 15:30N 59°23' E 018°37'3 5.7
2018-May-23 15:00N 59°25' E 018°32'4 8.3
2018-May-23 14:30N 59°26' E 018°24'3 5.5
2018-May-23 13:59N 59°23' E 018°20'4 8.1
2018-May-23 13:30N 59°21' E 018°15'510.5
2018-May-23 13:00N 59°20' E 018°04'0 0.1
2018-May-23 12:30N 59°20' E 018°04'0 0.0
2018-May-23 12:00N 59°20' E 018°04'0 0.0
2018-May-23 11:30N 59°20' E 018°04'0 0.0
2018-May-23 11:00N 59°20' E 018°04'0 0.0
2018-May-23 10:30N 59°20' E 018°04'0 0.0
2018-May-23 10:00N 59°20' E 018°04'0 0.0
2018-May-23 09:30N 59°20' E 018°04'0 0.0
2018-May-23 09:00N 59°20' E 018°04'0 0.0
2018-May-23 08:30N 59°20' E 018°04'0 0.0
2018-May-23 08:00N 59°20' E 018°04'0 0.0
2018-May-23 07:30N 59°20' E 018°04'0 0.0
2018-May-23 07:00N 59°20' E 018°04'0 0.0
2018-May-23 06:30N 59°20' E 018°04'0 0.0
2018-May-23 06:00N 59°20' E 018°04'4 7.4
2018-May-23 05:30N 59°20' E 018°12'5 9.2
2018-May-23 05:00N 59°23' E 018°19'2 4.4
2018-May-23 04:30N 59°24' E 018°23'0 0.3
2018-May-23 04:00N 59°24' E 018°23'1 0.6
2018-May-23 02:33N 59°24' E 018°21'0 0.0
2018-May-23 02:21N 59°24' E 018°21'0 0.0
2018-May-23 01:51N 59°24' E 018°21'0 0.0
2018-May-23 01:09N 59°24' E 018°21'0 0.0
2018-May-23 00:57N 59°24' E 018°21'0 0.0
2018-May-23 00:27N 59°24' E 018°21'0 0.0
2018-May-22 23:57N 59°24' E 018°21'0 0.0
2018-May-22 23:27N 59°24' E 018°21'0 0.0
2018-May-22 22:45N 59°24' E 018°21'0 0.0
2018-May-22 17:32N 59°24' E 018°21'0 6.4
2018-May-22 17:30N 59°24' E 018°22'1 1.1
2018-May-22 16:59N 59°24' E 018°23'2 3.2
2018-May-22 16:30N 59°23' E 018°20'4 8.7
2018-May-22 16:00N 59°20' E 018°13'4 8.8
2018-May-22 15:30N 59°20' E 018°05'0 0.1
2018-May-22 14:55N 59°20' E 018°05'0 0.0
2018-May-22 14:25N 59°20' E 018°05'0 0.8
2018-May-22 14:00N 59°19' E 018°05'510.0
2018-May-22 13:30N 59°21' E 018°14'5 9.9
2018-May-22 13:00N 59°24' E 018°21'4 6.9
2018-May-22 12:30N 59°26' E 018°27'4 7.3
2018-May-22 12:00N 59°25' E 018°33'4 7.2
2018-May-22 11:30N 59°28' E 018°38'4 7.5
2018-May-22 10:59N 59°29' E 018°45'3 5.9
2018-May-22 10:30N 59°30' E 018°51'611.1
2018-May-22 10:00N 59°28' E 018°41'3 6.2
2018-May-22 09:29N 59°26' E 018°35'3 5.7
2018-May-22 08:58N 59°25' E 018°30'3 6.6
2018-May-22 08:30N 59°26' E 018°24'4 7.4
2018-May-22 08:00N 59°22' E 018°20'3 6.8
2018-May-22 07:30N 59°21' E 018°14'510.2
2018-May-22 07:00N 59°20' E 018°04'0 0.1
2018-May-22 06:26N 59°20' E 018°05'0 0.0
2018-May-22 05:56N 59°20' E 018°05'0 0.0
2018-May-22 05:26N 59°20' E 018°05'0 0.0
2018-May-22 04:56N 59°20' E 018°05'0 0.0
2018-May-22 04:26N 59°20' E 018°05'0 0.0
2018-May-22 03:56N 59°20' E 018°05'0 0.0
2018-May-22 03:26N 59°20' E 018°05'0 0.0
2018-May-22 02:56N 59°20' E 018°05'0 0.0
2018-May-22 02:26N 59°20' E 018°05'0 0.0
2018-May-22 01:56N 59°20' E 018°05'0 0.0
2018-May-22 01:26N 59°20' E 018°05'0 0.0
2018-May-22 00:56N 59°20' E 018°05'0 0.0
2018-May-22 00:26N 59°20' E 018°05'0 0.0
2018-May-21 23:56N 59°20' E 018°05'0 0.0
2018-May-21 23:26N 59°20' E 018°05'0 0.0
2018-May-21 22:56N 59°20' E 018°05'0 0.0
2018-May-21 22:26N 59°20' E 018°05'0 0.0
2018-May-21 21:56N 59°20' E 018°05'0 0.0
2018-May-21 21:20N 59°20' E 018°05'0 0.0
2018-May-21 20:56N 59°20' E 018°05'0 0.0
2018-May-21 20:26N 59°20' E 018°05'0 0.0
2018-May-21 19:56N 59°20' E 018°05'0 0.0
2018-May-21 19:26N 59°20' E 018°05'0 0.0
2018-May-21 18:56N 59°20' E 018°05'0 0.0
2018-May-21 18:26N 59°20' E 018°05'0 0.0
2018-May-21 17:56N 59°20' E 018°05'0 0.0
2018-May-21 17:26N 59°20' E 018°05'0 0.0
2018-May-21 16:56N 59°20' E 018°05'0 0.0
2018-May-21 16:26N 59°20' E 018°05'0 0.0
2018-May-21 15:56N 59°20' E 018°05'0 0.0
2018-May-21 15:26N 59°20' E 018°05'0 0.0
2018-May-21 14:50N 59°20' E 018°05'0 0.0
2018-May-21 14:26N 59°20' E 018°05'0 0.0
2018-May-21 13:56N 59°20' E 018°05'0 0.0
2018-May-21 13:26N 59°20' E 018°05'0 0.0
2018-May-21 12:56N 59°20' E 018°05'0 0.0
2018-May-21 12:26N 59°20' E 018°05'0 0.0
2018-May-21 11:56N 59°20' E 018°05'0 0.0
2018-May-21 11:26N 59°20' E 018°05'0 0.0
2018-May-21 10:56N 59°20' E 018°05'0 0.0
2018-May-21 10:26N 59°20' E 018°05'0 0.0
2018-May-21 09:56N 59°20' E 018°05'0 0.0
2018-May-21 09:26N 59°20' E 018°05'0 0.0
2018-May-21 08:56N 59°20' E 018°05'0 0.0
2018-May-21 08:26N 59°20' E 018°05'0 0.0
2018-May-21 07:56N 59°20' E 018°05'0 0.0
2018-May-21 07:26N 59°20' E 018°05'0 0.0
2018-May-21 06:56N 59°20' E 018°05'0 0.0
2018-May-21 06:26N 59°20' E 018°05'0 0.0
2018-May-21 05:56N 59°20' E 018°05'0 0.0
2018-May-21 05:26N 59°20' E 018°05'0 0.0
2018-May-21 04:56N 59°20' E 018°05'0 0.0
2018-May-21 04:26N 59°20' E 018°05'0 0.0
2018-May-21 03:56N 59°20' E 018°05'0 0.0
2018-May-21 03:26N 59°20' E 018°05'0 0.0
2018-May-21 02:56N 59°20' E 018°05'0 0.0
2018-May-21 02:26N 59°20' E 018°05'0 0.0
2018-May-21 01:56N 59°20' E 018°05'0 0.0
2018-May-21 01:26N 59°20' E 018°05'0 0.0
2018-May-21 00:56N 59°20' E 018°05'0 0.0
2018-May-21 00:26N 59°20' E 018°05'0 0.0
2018-May-20 23:56N 59°20' E 018°05'0 0.0
2018-May-20 23:26N 59°20' E 018°05'0 0.0
2018-May-20 22:56N 59°20' E 018°05'0 0.0
2018-May-20 22:26N 59°20' E 018°05'0 0.0
2018-May-20 21:56N 59°20' E 018°05'0 0.0
2018-May-20 21:20N 59°20' E 018°05'0 0.0
2018-May-20 20:56N 59°20' E 018°05'0 0.0
2018-May-20 20:30N 59°20' E 018°05'0 0.0
2018-May-20 20:00N 59°20' E 018°05'0 0.0
2018-May-20 19:30N 59°20' E 018°05'0 0.0
2018-May-20 18:55N 59°20' E 018°05'4 8.7
2018-May-20 18:30N 59°20' E 018°12'611.5
2018-May-20 18:00N 59°23' E 018°20'5 7.9
2018-May-20 17:23N 59°25' E 018°29'3 8.9
2018-May-20 17:00N 59°24' E 018°35'4 7.1
2018-May-20 16:29N 59°26' E 018°41'2 3.1
2018-May-20 15:46N 59°28' E 018°44'3 9.4
2018-May-20 15:26N 59°26' E 018°39'713.0
2018-May-20 14:56N 59°25' E 018°26'4 7.7
2018-May-20 14:28N 59°23' E 018°20'817.2
2018-May-20 14:00N 59°19' E 018°07'2 3.1
2018-May-20 13:30N 59°20' E 018°04'2 4.5
2018-May-20 13:00N 59°19' E 018°09'611.7
2018-May-20 12:30N 59°23' E 018°18'3 6.8
2018-May-20 12:00N 59°25' E 018°22'612.5
2018-May-20 11:30N 59°25' E 018°34'3 6.3
2018-May-20 11:01N 59°28' E 018°38'4 8.9
2018-May-20 10:30N 59°29' E 018°46'2 4.3
2018-May-20 09:57N 59°30' E 018°51'4 8.4
2018-May-20 09:29N 59°29' E 018°43'5 8.0
2018-May-20 08:54N 59°27' E 018°35'2 4.8
2018-May-20 08:30N 59°26' E 018°32'5 9.8
2018-May-20 07:59N 59°26' E 018°22'3 7.1
2018-May-20 07:30N 59°22' E 018°20'612.9
2018-May-20 07:00N 59°19' E 018°09'3 4.9
2018-May-20 06:29N 59°20' E 018°05'0 0.0
2018-May-20 05:59N 59°20' E 018°05'0 0.0
2018-May-20 05:29N 59°20' E 018°05'0 0.0
2018-May-20 04:59N 59°20' E 018°05'0 0.0
2018-May-20 04:29N 59°20' E 018°05'0 0.0
2018-May-20 03:59N 59°20' E 018°05'0 0.0
2018-May-20 03:23N 59°20' E 018°05'0 0.0
2018-May-20 02:59N 59°20' E 018°05'0 0.0
2018-May-20 02:29N 59°20' E 018°05'0 0.0
2018-May-20 01:59N 59°20' E 018°05'0 0.0
2018-May-20 01:29N 59°20' E 018°05'0 0.0
2018-May-20 00:59N 59°20' E 018°05'0 0.0
2018-May-20 00:29N 59°20' E 018°05'0 0.0
2018-May-19 23:59N 59°20' E 018°05'0 0.0
2018-May-19 23:29N 59°20' E 018°05'0 0.0
2018-May-19 22:59N 59°20' E 018°05'0 0.0
2018-May-19 22:29N 59°20' E 018°05'0 0.0
2018-May-19 21:59N 59°20' E 018°05'0 0.0
2018-May-19 21:29N 59°20' E 018°05'0 0.0
2018-May-19 20:59N 59°20' E 018°05'0 0.0
2018-May-19 20:29N 59°20' E 018°05'0 0.0
2018-May-19 19:59N 59°20' E 018°05'0 0.0
2018-May-19 19:29N 59°20' E 018°05'0 0.0
2018-May-19 18:59N 59°20' E 018°05'0 0.8
2018-May-19 18:31N 59°19' E 018°05'510.3
2018-May-19 18:00N 59°21' E 018°14'5 9.4
2018-May-19 17:27N 59°25' E 018°21'3 6.2
2018-May-19 17:00N 59°26' E 018°27'3 6.5
2018-May-19 16:30N 59°24' E 018°33'3 6.3
2018-May-19 16:00N 59°23' E 018°38'3 6.8
2018-May-19 15:30N 59°27' E 018°41'2 1.5
2018-May-19 14:12N 59°27' E 018°44'2 9.2
2018-May-19 14:00N 59°26' E 018°42'510.8
2018-May-19 13:30N 59°25' E 018°32'3 7.0
2018-May-19 13:00N 59°26' E 018°25'2 4.8
2018-May-19 12:30N 59°24' E 018°21'2 4.6
2018-May-19 12:00N 59°26' E 018°25'5 9.9
2018-May-19 11:30N 59°25' E 018°34'3 6.1
2018-May-19 11:00N 59°28' E 018°38'510.4
2018-May-19 10:31N 59°30' E 018°47'1 2.6
2018-May-19 10:00N 59°29' E 018°50'3 6.7
2018-May-19 09:29N 59°27' E 018°44'3 5.5
2018-May-19 08:53N 59°26' E 018°38'5 8.3
2018-May-19 08:21N 59°25' E 018°29'2 5.2
2018-May-19 08:00N 59°26' E 018°26'3 5.2
2018-May-19 07:26N 59°24' E 018°21'510.3
2018-May-19 07:00N 59°21' E 018°14'510.4
2018-May-19 06:30N 59°20' E 018°04'0 0.1
2018-May-19 05:57N 59°20' E 018°04'0 0.0
2018-May-19 05:27N 59°20' E 018°04'0 0.0
2018-May-19 04:57N 59°20' E 018°04'0 0.0
2018-May-19 04:22N 59°20' E 018°04'0 0.0
2018-May-19 03:57N 59°20' E 018°04'0 0.0
2018-May-19 03:27N 59°20' E 018°04'0 0.0
2018-May-19 02:57N 59°20' E 018°04'0 0.0
2018-May-19 02:28N 59°20' E 018°04'0 0.0
2018-May-19 01:57N 59°20' E 018°04'0 0.0
2018-May-19 01:27N 59°20' E 018°04'0 0.0
2018-May-19 00:58N 59°20' E 018°04'0 0.0
2018-May-19 00:27N 59°20' E 018°04'0 0.0
2018-May-18 23:57N 59°20' E 018°04'0 0.0
2018-May-18 23:27N 59°20' E 018°04'0 0.0
2018-May-18 22:57N 59°20' E 018°04'0 0.0
2018-May-18 22:27N 59°20' E 018°04'0 0.0
2018-May-18 21:58N 59°20' E 018°04'0 0.0
2018-May-18 21:27N 59°20' E 018°04'0 0.0
2018-May-18 20:57N 59°20' E 018°04'0 0.0
2018-May-18 20:27N 59°20' E 018°04'0 0.6
2018-May-18 20:00N 59°19' E 018°05'611.9
2018-May-18 19:30N 59°22' E 018°15'5 9.4
2018-May-18 19:00N 59°25' E 018°21'5 9.2
2018-May-18 18:30N 59°29' E 018°28'1 2.7
2018-May-18 18:00N 59°27' E 018°28'4 7.8
2018-May-18 17:30N 59°25' E 018°22'2 4.1
2018-May-18 16:59N 59°23' E 018°24'1 2.9
2018-May-18 16:30N 59°22' E 018°26'2 3.6
2018-May-18 15:59N 59°23' E 018°24'2 3.2
2018-May-18 15:27N 59°23' E 018°20'3 6.4
2018-May-18 15:00N 59°22' E 018°16'5 9.5
2018-May-18 14:30N 59°19' E 018°08'2 4.0
2018-May-18 14:00N 59°20' E 018°05'0 0.0
2018-May-18 13:30N 59°20' E 018°05'0 0.0
2018-May-18 13:00N 59°20' E 018°05'0 0.0
2018-May-18 12:30N 59°20' E 018°05'0 0.0
2018-May-18 12:00N 59°20' E 018°05'0 0.0
2018-May-18 11:30N 59°20' E 018°05'0 0.0
2018-May-18 11:00N 59°20' E 018°05'0 0.0
2018-May-18 10:30N 59°20' E 018°05'0 0.0
2018-May-18 10:00N 59°20' E 018°05'0 0.0
2018-May-18 09:30N 59°20' E 018°05'0 0.0
2018-May-18 09:00N 59°20' E 018°05'0 0.0
2018-May-18 08:30N 59°20' E 018°05'1 1.9
2018-May-18 08:00N 59°19' E 018°06'612.1
2018-May-18 07:30N 59°22' E 018°17'3 6.8
2018-May-18 07:00N 59°24' E 018°22'3 5.5
2018-May-18 06:30N 59°26' E 018°26'5 9.9
2018-May-18 06:00N 59°24' E 018°35'611.3
2018-May-18 05:30N 59°23' E 018°46'6 5.4
2018-May-18 04:23N 59°27' E 018°56'0 0.6
2018-May-18 04:00N 59°27' E 018°55'0 0.0
2018-May-18 03:12N 59°27' E 018°55'0 0.0
2018-May-18 02:42N 59°27' E 018°55'0 0.0
2018-May-18 00:00N 59°27' E 018°55'0 0.0
2018-May-17 23:24N 59°27' E 018°55'0 0.0
2018-May-17 23:00N 59°27' E 018°55'0 0.0
2018-May-17 22:30N 59°27' E 018°55'0 0.0
2018-May-17 19:18N 59°27' E 018°55'0 0.0
2018-May-17 18:54N 59°27' E 018°55'0 0.0
2018-May-17 18:24N 59°27' E 018°55'0 0.3
2018-May-17 18:00N 59°27' E 018°55'0 0.2
2018-May-17 17:30N 59°27' E 018°55'1 1.5
2018-May-17 17:00N 59°26' E 018°56'4 7.6
2018-May-17 16:27N 59°23' E 018°51'3 5.9
2018-May-17 15:58N 59°23' E 018°45'3 6.6
2018-May-17 15:30N 59°23' E 018°39'1 1.4
2018-May-17 14:29N 59°22' E 018°36'0 0.0
2018-May-17 13:58N 59°22' E 018°36'3 7.3
2018-May-17 13:30N 59°24' E 018°42'2 3.6
2018-May-17 13:00N 59°23' E 018°46'5 5.2
2018-May-17 12:00N 59°25' E 018°55'1 2.4
2018-May-17 11:26N 59°27' E 018°55'0 0.0
2018-May-17 10:56N 59°27' E 018°55'1 3.4
2018-May-17 10:30N 59°25' E 018°55'4 5.1
2018-May-17 09:46N 59°23' E 018°49'1 3.4
2018-May-17 09:21N 59°23' E 018°46'2 4.3
2018-May-17 08:52N 59°23' E 018°42'2 6.2
2018-May-17 08:30N 59°23' E 018°38'1 1.5
2018-May-17 07:55N 59°22' E 018°36'0 0.0
2018-May-17 07:07N 59°22' E 018°36'0 0.0
2018-May-17 06:55N 59°22' E 018°36'0 0.0
2018-May-17 06:25N 59°22' E 018°36'0 0.0
2018-May-17 05:54N 59°22' E 018°36'4 9.1
2018-May-17 05:28N 59°26' E 018°39'3 5.3
2018-May-17 04:53N 59°28' E 018°44'3 8.5
2018-May-17 04:30N 59°29' E 018°50'1 0.1
2018-May-16 16:50N 59°30' E 018°51'410.5
2018-May-16 16:27N 59°28' E 018°44'2 4.5
2018-May-16 16:00N 59°27' E 018°41'4 7.4
2018-May-16 15:30N 59°24' E 018°37'3 5.2
2018-May-16 15:00N 59°25' E 018°32'4 7.6
2018-May-16 14:30N 59°26' E 018°25'3 6.0
2018-May-16 14:00N 59°24' E 018°21'4 8.0
2018-May-16 13:30N 59°21' E 018°15'510.4
2018-May-16 13:00N 59°20' E 018°04'0 0.0
2018-May-16 12:30N 59°20' E 018°04'0 0.0
2018-May-16 12:00N 59°20' E 018°04'0 0.0
2018-May-16 11:30N 59°20' E 018°04'0 0.0
2018-May-16 11:00N 59°20' E 018°04'0 0.0
2018-May-16 10:30N 59°20' E 018°04'0 0.0
2018-May-16 10:00N 59°20' E 018°04'0 0.0
2018-May-16 09:30N 59°20' E 018°04'0 0.0
2018-May-16 09:00N 59°20' E 018°04'0 0.0
2018-May-16 08:30N 59°20' E 018°04'0 0.0
2018-May-16 08:00N 59°20' E 018°04'0 0.0
2018-May-16 07:30N 59°20' E 018°04'0 0.0
2018-May-16 07:00N 59°20' E 018°04'0 0.0
2018-May-16 06:30N 59°20' E 018°04'0 0.3
2018-May-16 06:00N 59°20' E 018°05'4 8.4
2018-May-16 05:30N 59°20' E 018°13'4 8.4
2018-May-16 05:01N 59°23' E 018°20'2 3.4
2018-May-16 04:30N 59°24' E 018°23'0 0.6
2018-May-16 04:00N 59°24' E 018°22'1 0.1
2018-May-15 17:50N 59°24' E 018°21'2 6.0
2018-May-15 17:30N 59°23' E 018°25'3 4.9
2018-May-15 16:59N 59°24' E 018°20'4 7.3
2018-May-15 16:25N 59°21' E 018°15'510.9
2018-May-15 16:00N 59°19' E 018°07'1 0.7
2018-May-15 14:09N 59°20' E 018°04'1 5.1
2018-May-15 13:59N 59°19' E 018°06'5 9.6
2018-May-15 13:26N 59°22' E 018°15'4 9.6
2018-May-15 13:00N 59°24' E 018°21'3 5.4
2018-May-15 12:30N 59°26' E 018°24'510.1
2018-May-15 12:00N 59°24' E 018°33'4 8.6
2018-May-15 11:31N 59°28' E 018°38'4 8.1
2018-May-15 11:00N 59°29' E 018°46'2 4.0
2018-May-15 10:30N 59°29' E 018°50'3 6.4
2018-May-15 10:00N 59°29' E 018°43'5 7.9
2018-May-15 09:23N 59°26' E 018°35'2 6.5
2018-May-15 09:00N 59°25' E 018°32'3 6.7
2018-May-15 08:29N 59°26' E 018°25'3 6.9
2018-May-15 08:00N 59°23' E 018°20'5 8.8
2018-May-15 07:29N 59°20' E 018°13'5 9.4
2018-May-15 07:00N 59°20' E 018°04'0 0.1
2018-May-15 06:29N 59°20' E 018°05'0 0.0
2018-May-15 05:59N 59°20' E 018°05'  

Dump ship's entire track history